PAA2522 KFZY-KBOS
Flight info
| Callsign | PAA2522 |
|---|---|
| Flight time | 1h 17m |
| Altitude | 23000 |
| Route | SAEZE PONCT JFUND2 |
| Aircraft | DC6/M-SDE1FGHIRWXY/S |
Departure
| Time | 2026-05-08 01:00 |
|---|---|
| Airport | Oswego County Airport (KFZY) |
Arrival
| Time | 2026-05-08 02:18 |
|---|---|
| Airport | Boston Logan International Airport (KBOS) |
| Time | Latitude | Longitude | Altitude | Speed | Heading |
|---|---|---|---|---|---|
| 2026-05-08 00:31 | 43.34969 | -76.39203 | 469 ft | 0 kts | 49° |
| 2026-05-08 00:51 | 43.34984 | -76.39181 | 469 ft | 6 kts | 36° |
| 2026-05-08 00:51 | 43.35027 | -76.39168 | 469 ft | 9 kts | 14° |
| 2026-05-08 00:52 | 43.35081 | -76.39113 | 468 ft | 13 kts | 87° |
| 2026-05-08 00:52 | 43.35075 | -76.38969 | 470 ft | 15 kts | 102° |
| 2026-05-08 00:52 | 43.35000 | -76.38856 | 470 ft | 19 kts | 137° |
| 2026-05-08 00:52 | 43.34899 | -76.38726 | 473 ft | 21 kts | 137° |
| 2026-05-08 00:53 | 43.34777 | -76.38570 | 476 ft | 25 kts | 137° |
| 2026-05-08 00:53 | 43.34644 | -76.38402 | 477 ft | 27 kts | 137° |
| 2026-05-08 00:53 | 43.34543 | -76.38274 | 481 ft | 10 kts | 128° |
| 2026-05-08 00:53 | 43.34548 | -76.38223 | 476 ft | 0 kts | 48° |
| 2026-05-08 00:55 | 43.34554 | -76.38214 | 480 ft | 5 kts | 48° |
| 2026-05-08 00:55 | 43.34588 | -76.38162 | 483 ft | 6 kts | 34° |
| 2026-05-08 00:55 | 43.34625 | -76.38171 | 477 ft | 0 kts | 319° |
| 2026-05-08 00:58 | 43.34627 | -76.38174 | 476 ft | 0 kts | 319° |
| 2026-05-08 00:59 | 43.34628 | -76.38174 | 476 ft | 2 kts | 319° |
| 2026-05-08 00:59 | 43.34799 | -76.38393 | 478 ft | 64 kts | 316° |
| 2026-05-08 00:59 | 43.35261 | -76.38980 | 471 ft | 114 kts | 317° |
| 2026-05-08 01:00 | 43.35912 | -76.39778 | 618 ft | 134 kts | 317° |
| 2026-05-08 01:00 | 43.36662 | -76.40683 | 814 ft | 153 kts | 317° |
| 2026-05-08 01:00 | 43.37511 | -76.41692 | 1068 ft | 171 kts | 318° |
| 2026-05-08 01:00 | 43.38443 | -76.42782 | 1367 ft | 180 kts | 318° |
| 2026-05-08 01:01 | 43.39405 | -76.43915 | 1741 ft | 183 kts | 317° |
| 2026-05-08 01:01 | 43.40375 | -76.45041 | 2012 ft | 184 kts | 318° |
| 2026-05-08 01:01 | 43.41362 | -76.46187 | 2245 ft | 186 kts | 318° |
| 2026-05-08 01:01 | 43.42353 | -76.47343 | 2541 ft | 187 kts | 318° |
| 2026-05-08 01:02 | 43.43342 | -76.48506 | 2834 ft | 187 kts | 318° |
| 2026-05-08 01:02 | 43.44335 | -76.49674 | 3105 ft | 188 kts | 319° |
| 2026-05-08 01:02 | 43.45329 | -76.50846 | 3352 ft | 189 kts | 317° |
| 2026-05-08 01:02 | 43.46319 | -76.52027 | 3655 ft | 187 kts | 316° |
| 2026-05-08 01:03 | 43.46899 | -76.53598 | 3789 ft | 191 kts | 276° |
| 2026-05-08 01:03 | 43.46489 | -76.55328 | 3966 ft | 199 kts | 234° |
| 2026-05-08 01:03 | 43.45530 | -76.56667 | 4222 ft | 194 kts | 234° |
| 2026-05-08 01:03 | 43.44738 | -76.58152 | 4479 ft | 192 kts | 238° |
| 2026-05-08 01:04 | 43.43873 | -76.59557 | 4682 ft | 197 kts | 221° |
| 2026-05-08 01:04 | 43.42527 | -76.60061 | 4808 ft | 213 kts | 179° |
| 2026-05-08 01:04 | 43.41177 | -76.59185 | 4999 ft | 224 kts | 138° |
| 2026-05-08 01:04 | 43.40420 | -76.57331 | 5241 ft | 222 kts | 112° |
| 2026-05-08 01:05 | 43.39700 | -76.55463 | 5505 ft | 221 kts | 123° |
| 2026-05-08 01:05 | 43.38905 | -76.53655 | 5744 ft | 222 kts | 122° |
| 2026-05-08 01:05 | 43.38123 | -76.51854 | 5986 ft | 223 kts | 123° |
| 2026-05-08 01:05 | 43.37330 | -76.50013 | 6236 ft | 224 kts | 123° |
| 2026-05-08 01:06 | 43.36539 | -76.48159 | 6464 ft | 225 kts | 122° |
| 2026-05-08 01:06 | 43.35797 | -76.46262 | 6685 ft | 227 kts | 112° |
| 2026-05-08 01:06 | 43.35533 | -76.44117 | 6880 ft | 228 kts | 94° |
| 2026-05-08 01:06 | 43.35413 | -76.41936 | 7132 ft | 229 kts | 95° |
| 2026-05-08 01:07 | 43.35216 | -76.39791 | 7481 ft | 225 kts | 99° |
| 2026-05-08 01:07 | 43.34951 | -76.37690 | 7808 ft | 223 kts | 101° |
| 2026-05-08 01:07 | 43.34698 | -76.35594 | 8107 ft | 222 kts | 100° |
| 2026-05-08 01:07 | 43.34455 | -76.33500 | 8420 ft | 222 kts | 100° |
| 2026-05-08 01:08 | 43.34210 | -76.31410 | 8719 ft | 222 kts | 101° |
| 2026-05-08 01:08 | 43.33962 | -76.29317 | 9021 ft | 222 kts | 101° |
| 2026-05-08 01:08 | 43.33714 | -76.27218 | 9314 ft | 223 kts | 101° |
| 2026-05-08 01:08 | 43.33466 | -76.25113 | 9604 ft | 224 kts | 101° |
| 2026-05-08 01:09 | 43.33216 | -76.23004 | 9889 ft | 224 kts | 101° |
| 2026-05-08 01:09 | 43.32964 | -76.20885 | 10153 ft | 225 kts | 101° |
| 2026-05-08 01:09 | 43.32711 | -76.18760 | 10417 ft | 226 kts | 101° |
| 2026-05-08 01:09 | 43.32403 | -76.16657 | 10654 ft | 224 kts | 113° |
| 2026-05-08 01:10 | 43.31839 | -76.14674 | 10904 ft | 223 kts | 114° |
| 2026-05-08 01:10 | 43.31348 | -76.12641 | 11150 ft | 225 kts | 111° |
| 2026-05-08 01:10 | 43.30872 | -76.10586 | 11407 ft | 226 kts | 112° |
| 2026-05-08 01:10 | 43.30372 | -76.08536 | 11674 ft | 227 kts | 112° |
| 2026-05-08 01:11 | 43.29876 | -76.06509 | 11920 ft | 227 kts | 112° |
| 2026-05-08 01:11 | 43.29377 | -76.04455 | 12165 ft | 225 kts | 112° |
| 2026-05-08 01:11 | 43.28884 | -76.02428 | 12360 ft | 223 kts | 112° |
| 2026-05-08 01:11 | 43.28395 | -76.00420 | 12544 ft | 221 kts | 112° |
| 2026-05-08 01:12 | 43.27908 | -75.98428 | 12716 ft | 220 kts | 113° |
| 2026-05-08 01:12 | 43.27424 | -75.96445 | 12882 ft | 219 kts | 113° |
| 2026-05-08 01:12 | 43.26941 | -75.94470 | 13021 ft | 219 kts | 113° |
| 2026-05-08 01:12 | 43.26441 | -75.92440 | 13007 ft | 228 kts | 112° |
| 2026-05-08 01:13 | 43.25933 | -75.90357 | 13007 ft | 232 kts | 112° |
| 2026-05-08 01:13 | 43.25408 | -75.88217 | 13015 ft | 243 kts | 112° |
| 2026-05-08 01:13 | 43.24853 | -75.85964 | 13009 ft | 254 kts | 112° |
| 2026-05-08 01:13 | 43.24287 | -75.83649 | 13195 ft | 254 kts | 112° |
| 2026-05-08 01:14 | 43.23730 | -75.81370 | 13479 ft | 250 kts | 112° |
| 2026-05-08 01:14 | 43.23177 | -75.79129 | 13740 ft | 247 kts | 112° |
| 2026-05-08 01:14 | 43.22630 | -75.76907 | 13960 ft | 245 kts | 112° |
| 2026-05-08 01:14 | 43.22087 | -75.74705 | 14170 ft | 243 kts | 112° |
| 2026-05-08 01:15 | 43.21547 | -75.72516 | 14356 ft | 242 kts | 113° |
| 2026-05-08 01:15 | 43.21008 | -75.70339 | 14552 ft | 241 kts | 113° |
| 2026-05-08 01:15 | 43.20473 | -75.68169 | 14735 ft | 240 kts | 113° |
| 2026-05-08 01:15 | 43.19938 | -75.66010 | 14913 ft | 239 kts | 113° |
| 2026-05-08 01:16 | 43.19405 | -75.63856 | 15081 ft | 238 kts | 113° |
| 2026-05-08 01:16 | 43.18872 | -75.61709 | 15261 ft | 238 kts | 113° |
| 2026-05-08 01:16 | 43.18339 | -75.59563 | 15432 ft | 238 kts | 113° |
| 2026-05-08 01:16 | 43.17805 | -75.57413 | 15615 ft | 239 kts | 113° |
| 2026-05-08 01:17 | 43.17268 | -75.55251 | 15798 ft | 240 kts | 113° |
| 2026-05-08 01:17 | 43.16731 | -75.53089 | 15985 ft | 240 kts | 114° |
| 2026-05-08 01:17 | 43.16192 | -75.50928 | 16160 ft | 240 kts | 114° |
| 2026-05-08 01:17 | 43.15651 | -75.48762 | 16346 ft | 240 kts | 114° |
| 2026-05-08 01:18 | 43.15121 | -75.46632 | 16518 ft | 240 kts | 114° |
| 2026-05-08 01:18 | 43.14579 | -75.44468 | 16695 ft | 240 kts | 114° |
| 2026-05-08 01:18 | 43.14040 | -75.42308 | 16863 ft | 240 kts | 114° |
| 2026-05-08 01:18 | 43.13499 | -75.40148 | 17035 ft | 239 kts | 114° |
| 2026-05-08 01:19 | 43.12960 | -75.37994 | 17201 ft | 239 kts | 114° |
| 2026-05-08 01:19 | 43.12420 | -75.35842 | 17351 ft | 239 kts | 115° |
| 2026-05-08 01:19 | 43.11881 | -75.33691 | 17502 ft | 239 kts | 115° |
| 2026-05-08 01:19 | 43.11342 | -75.31549 | 17653 ft | 239 kts | 115° |
| 2026-05-08 01:20 | 43.10801 | -75.29398 | 17788 ft | 238 kts | 115° |
| 2026-05-08 01:20 | 43.10263 | -75.27259 | 17931 ft | 238 kts | 115° |
| 2026-05-08 01:20 | 43.09724 | -75.25115 | 18059 ft | 238 kts | 115° |
| 2026-05-08 01:20 | 43.09184 | -75.22977 | 18204 ft | 238 kts | 115° |
| 2026-05-08 01:21 | 43.08645 | -75.20842 | 18305 ft | 237 kts | 115° |
| 2026-05-08 01:21 | 43.08107 | -75.18706 | 18401 ft | 237 kts | 116° |
| 2026-05-08 01:21 | 43.07575 | -75.16602 | 18506 ft | 237 kts | 116° |
| 2026-05-08 01:21 | 43.07035 | -75.14469 | 18609 ft | 237 kts | 116° |
| 2026-05-08 01:22 | 43.06493 | -75.12329 | 18706 ft | 239 kts | 116° |
| 2026-05-08 01:22 | 43.05945 | -75.10175 | 18800 ft | 241 kts | 116° |
| 2026-05-08 01:22 | 43.05396 | -75.08006 | 18917 ft | 241 kts | 116° |
| 2026-05-08 01:22 | 43.04837 | -75.05815 | 18912 ft | 250 kts | 117° |
| 2026-05-08 01:23 | 43.04257 | -75.03543 | 18930 ft | 257 kts | 116° |
| 2026-05-08 01:23 | 43.03667 | -75.01215 | 18923 ft | 262 kts | 116° |
| 2026-05-08 01:23 | 43.03062 | -74.98836 | 18915 ft | 268 kts | 116° |
| 2026-05-08 01:23 | 43.02444 | -74.96416 | 18916 ft | 272 kts | 116° |
| 2026-05-08 01:24 | 43.01818 | -74.93955 | 18920 ft | 276 kts | 116° |
| 2026-05-08 01:24 | 43.01181 | -74.91465 | 18921 ft | 279 kts | 116° |
| 2026-05-08 01:24 | 43.00537 | -74.88946 | 18925 ft | 283 kts | 116° |
| 2026-05-08 01:24 | 42.99880 | -74.86384 | 18923 ft | 288 kts | 116° |
| 2026-05-08 01:25 | 42.99215 | -74.83783 | 18918 ft | 290 kts | 116° |
| 2026-05-08 01:25 | 42.98549 | -74.81182 | 18912 ft | 290 kts | 116° |
| 2026-05-08 01:25 | 42.97893 | -74.78628 | 18908 ft | 288 kts | 116° |
| 2026-05-08 01:25 | 42.97230 | -74.76050 | 18902 ft | 288 kts | 116° |
| 2026-05-08 01:26 | 42.96562 | -74.73460 | 18898 ft | 289 kts | 116° |
| 2026-05-08 01:26 | 42.95895 | -74.70871 | 18895 ft | 289 kts | 116° |
| 2026-05-08 01:26 | 42.95226 | -74.68279 | 18905 ft | 290 kts | 116° |
| 2026-05-08 01:26 | 42.94555 | -74.65678 | 18900 ft | 291 kts | 116° |
| 2026-05-08 01:27 | 42.93883 | -74.63076 | 18901 ft | 290 kts | 116° |
| 2026-05-08 01:27 | 42.93209 | -74.60477 | 18899 ft | 291 kts | 117° |
| 2026-05-08 01:27 | 42.92534 | -74.57872 | 18901 ft | 291 kts | 116° |
| 2026-05-08 01:27 | 42.91858 | -74.55265 | 18902 ft | 292 kts | 117° |
| 2026-05-08 01:28 | 42.91180 | -74.52656 | 18908 ft | 292 kts | 117° |
| 2026-05-08 01:28 | 42.90500 | -74.50038 | 18893 ft | 292 kts | 117° |
| 2026-05-08 01:28 | 42.89819 | -74.47425 | 18893 ft | 293 kts | 117° |
| 2026-05-08 01:28 | 42.89148 | -74.44847 | 18898 ft | 293 kts | 117° |
| 2026-05-08 01:29 | 42.88467 | -74.42234 | 18899 ft | 293 kts | 117° |
| 2026-05-08 01:29 | 42.87784 | -74.39615 | 18892 ft | 293 kts | 117° |
| 2026-05-08 01:29 | 42.87100 | -74.37004 | 18892 ft | 293 kts | 117° |
| 2026-05-08 01:29 | 42.86417 | -74.34391 | 18895 ft | 292 kts | 117° |
| 2026-05-08 01:30 | 42.85732 | -74.31781 | 18893 ft | 293 kts | 117° |
| 2026-05-08 01:30 | 42.85047 | -74.29166 | 18894 ft | 293 kts | 117° |
| 2026-05-08 01:30 | 42.84362 | -74.26553 | 18891 ft | 292 kts | 117° |
| 2026-05-08 01:30 | 42.83675 | -74.23944 | 18884 ft | 293 kts | 117° |
| 2026-05-08 01:31 | 42.82987 | -74.21327 | 18887 ft | 294 kts | 117° |
| 2026-05-08 01:31 | 42.82299 | -74.18711 | 18890 ft | 293 kts | 118° |
| 2026-05-08 01:31 | 42.81608 | -74.16097 | 18888 ft | 293 kts | 118° |
| 2026-05-08 01:31 | 42.80919 | -74.13483 | 18888 ft | 293 kts | 118° |
| 2026-05-08 01:32 | 42.80227 | -74.10865 | 18889 ft | 293 kts | 118° |
| 2026-05-08 01:32 | 42.79534 | -74.08250 | 18888 ft | 294 kts | 118° |
| 2026-05-08 01:32 | 42.78841 | -74.05634 | 18889 ft | 294 kts | 118° |
| 2026-05-08 01:32 | 42.78148 | -74.03013 | 18889 ft | 294 kts | 118° |
| 2026-05-08 01:33 | 42.77453 | -74.00395 | 18888 ft | 294 kts | 118° |
| 2026-05-08 01:33 | 42.76757 | -73.97783 | 18888 ft | 294 kts | 118° |
| 2026-05-08 01:33 | 42.76060 | -73.95156 | 18888 ft | 295 kts | 118° |
| 2026-05-08 01:33 | 42.75362 | -73.92536 | 18887 ft | 295 kts | 118° |
| 2026-05-08 01:34 | 42.74670 | -73.89938 | 18886 ft | 295 kts | 118° |
| 2026-05-08 01:34 | 42.74197 | -73.88165 | 18888 ft | 295 kts | 118° |
| 2026-05-08 01:34 | 42.73268 | -73.84690 | 18888 ft | 296 kts | 118° |
| 2026-05-08 01:34 | 42.72565 | -73.82060 | 18886 ft | 296 kts | 118° |
| 2026-05-08 01:35 | 42.71862 | -73.79432 | 18891 ft | 296 kts | 118° |
| 2026-05-08 01:35 | 42.71156 | -73.76800 | 18890 ft | 297 kts | 118° |
| 2026-05-08 01:35 | 42.70449 | -73.74165 | 18891 ft | 297 kts | 118° |
| 2026-05-08 01:35 | 42.69970 | -73.72382 | 18889 ft | 297 kts | 119° |
| 2026-05-08 01:36 | 42.69262 | -73.69748 | 18887 ft | 297 kts | 119° |
| 2026-05-08 01:36 | 42.68552 | -73.67103 | 18885 ft | 298 kts | 119° |
| 2026-05-08 01:36 | 42.67849 | -73.64495 | 18886 ft | 298 kts | 119° |
| 2026-05-08 01:36 | 42.67126 | -73.61820 | 18882 ft | 297 kts | 119° |
| 2026-05-08 01:37 | 42.66425 | -73.59218 | 18881 ft | 298 kts | 119° |
| 2026-05-08 01:37 | 42.65713 | -73.56580 | 18879 ft | 297 kts | 119° |
| 2026-05-08 01:37 | 42.64998 | -73.53943 | 18878 ft | 298 kts | 119° |
| 2026-05-08 01:37 | 42.64282 | -73.51299 | 18875 ft | 299 kts | 119° |
| 2026-05-08 01:38 | 42.63563 | -73.48645 | 18861 ft | 299 kts | 119° |
| 2026-05-08 01:38 | 42.62845 | -73.45997 | 18861 ft | 299 kts | 120° |
| 2026-05-08 01:38 | 42.62124 | -73.43344 | 18861 ft | 299 kts | 120° |
| 2026-05-08 01:38 | 42.61404 | -73.40695 | 18860 ft | 299 kts | 120° |
| 2026-05-08 01:39 | 42.60682 | -73.38048 | 18863 ft | 298 kts | 120° |
| 2026-05-08 01:39 | 42.59961 | -73.35406 | 18862 ft | 299 kts | 120° |
| 2026-05-08 01:39 | 42.59239 | -73.32755 | 18857 ft | 299 kts | 120° |
| 2026-05-08 01:39 | 42.58518 | -73.30117 | 18855 ft | 298 kts | 120° |
| 2026-05-08 01:40 | 42.57797 | -73.27479 | 18863 ft | 299 kts | 120° |
| 2026-05-08 01:40 | 42.57075 | -73.24841 | 18858 ft | 298 kts | 120° |
| 2026-05-08 01:40 | 42.56353 | -73.22205 | 18858 ft | 298 kts | 120° |
| 2026-05-08 01:40 | 42.55629 | -73.19565 | 18858 ft | 298 kts | 120° |
| 2026-05-08 01:41 | 42.54906 | -73.16935 | 18854 ft | 298 kts | 120° |
| 2026-05-08 01:41 | 42.54181 | -73.14300 | 18855 ft | 298 kts | 120° |
| 2026-05-08 01:41 | 42.53460 | -73.11677 | 18863 ft | 297 kts | 120° |
| 2026-05-08 01:41 | 42.52737 | -73.09051 | 18862 ft | 297 kts | 121° |
| 2026-05-08 01:42 | 42.52021 | -73.06456 | 18854 ft | 297 kts | 121° |
| 2026-05-08 01:42 | 42.51297 | -73.03834 | 18863 ft | 297 kts | 121° |
| 2026-05-08 01:42 | 42.50573 | -73.01214 | 18869 ft | 297 kts | 121° |
| 2026-05-08 01:42 | 42.49850 | -72.98597 | 18869 ft | 296 kts | 120° |
| 2026-05-08 01:43 | 42.49127 | -72.95989 | 18870 ft | 297 kts | 121° |
| 2026-05-08 01:43 | 42.48398 | -72.93372 | 18868 ft | 297 kts | 121° |
| 2026-05-08 01:43 | 42.47673 | -72.90752 | 18869 ft | 297 kts | 120° |
| 2026-05-08 01:43 | 42.46948 | -72.88134 | 18869 ft | 297 kts | 121° |
| 2026-05-08 01:44 | 42.46219 | -72.85518 | 18867 ft | 297 kts | 121° |
| 2026-05-08 01:44 | 42.45490 | -72.82903 | 18867 ft | 297 kts | 121° |
| 2026-05-08 01:44 | 42.44761 | -72.80284 | 18869 ft | 297 kts | 121° |
| 2026-05-08 01:44 | 42.44035 | -72.77668 | 18863 ft | 297 kts | 120° |
| 2026-05-08 01:45 | 42.43776 | -72.74833 | 18834 ft | 313 kts | 88° |
| 2026-05-08 01:45 | 42.44330 | -72.71978 | 18867 ft | 314 kts | 76° |
| 2026-05-08 01:45 | 42.44852 | -72.69115 | 18872 ft | 311 kts | 83° |
| 2026-05-08 01:45 | 42.45229 | -72.66232 | 18865 ft | 312 kts | 84° |
| 2026-05-08 01:46 | 42.45677 | -72.63343 | 18867 ft | 314 kts | 81° |
| 2026-05-08 01:46 | 42.46185 | -72.60467 | 18874 ft | 314 kts | 81° |
| 2026-05-08 01:46 | 42.46664 | -72.57581 | 18875 ft | 314 kts | 82° |
| 2026-05-08 01:46 | 42.47120 | -72.54681 | 18870 ft | 315 kts | 82° |
| 2026-05-08 01:47 | 42.47587 | -72.51777 | 18866 ft | 315 kts | 82° |
| 2026-05-08 01:47 | 42.48062 | -72.48874 | 18876 ft | 316 kts | 82° |
| 2026-05-08 01:47 | 42.48528 | -72.46011 | 18872 ft | 316 kts | 82° |
| 2026-05-08 01:48 | 42.49462 | -72.40192 | 18870 ft | 317 kts | 82° |
| 2026-05-08 01:48 | 42.49932 | -72.37278 | 18878 ft | 317 kts | 82° |
| 2026-05-08 01:48 | 42.50401 | -72.34354 | 18877 ft | 317 kts | 82° |
| 2026-05-08 01:48 | 42.50868 | -72.31435 | 18875 ft | 317 kts | 82° |
| 2026-05-08 01:49 | 42.51336 | -72.28512 | 18880 ft | 317 kts | 82° |
| 2026-05-08 01:49 | 42.51803 | -72.25585 | 18875 ft | 318 kts | 82° |
| 2026-05-08 01:49 | 42.52270 | -72.22654 | 18877 ft | 318 kts | 82° |
| 2026-05-08 01:49 | 42.52737 | -72.19722 | 18874 ft | 318 kts | 82° |
| 2026-05-08 01:50 | 42.53203 | -72.16786 | 18876 ft | 319 kts | 83° |
| 2026-05-08 01:50 | 42.53669 | -72.13848 | 18877 ft | 319 kts | 82° |
| 2026-05-08 01:50 | 42.54136 | -72.10903 | 18873 ft | 319 kts | 82° |
| 2026-05-08 01:50 | 42.54599 | -72.07965 | 18875 ft | 319 kts | 83° |
| 2026-05-08 01:51 | 42.55065 | -72.05018 | 18873 ft | 319 kts | 83° |
| 2026-05-08 01:51 | 42.55529 | -72.02071 | 18855 ft | 319 kts | 83° |
| 2026-05-08 01:51 | 42.55992 | -71.99121 | 18857 ft | 319 kts | 83° |
| 2026-05-08 01:51 | 42.56453 | -71.96178 | 18855 ft | 320 kts | 83° |
| 2026-05-08 01:52 | 42.56915 | -71.93227 | 18852 ft | 320 kts | 83° |
| 2026-05-08 01:52 | 42.57377 | -71.90273 | 18851 ft | 320 kts | 83° |
| 2026-05-08 01:52 | 42.57839 | -71.87317 | 18855 ft | 320 kts | 83° |
| 2026-05-08 01:52 | 42.58300 | -71.84359 | 18854 ft | 320 kts | 83° |
| 2026-05-08 01:53 | 42.58572 | -71.81402 | 18804 ft | 310 kts | 102° |
| 2026-05-08 01:53 | 42.58097 | -71.78664 | 18863 ft | 294 kts | 117° |
| 2026-05-08 01:53 | 42.57612 | -71.75938 | 18860 ft | 300 kts | 111° |
| 2026-05-08 01:53 | 42.57240 | -71.73140 | 18858 ft | 302 kts | 110° |
| 2026-05-08 01:54 | 42.56827 | -71.70370 | 18855 ft | 296 kts | 112° |
| 2026-05-08 01:54 | 42.56379 | -71.67692 | 18657 ft | 298 kts | 113° |
| 2026-05-08 01:54 | 42.55924 | -71.64932 | 18275 ft | 302 kts | 112° |
| 2026-05-08 01:54 | 42.55483 | -71.62108 | 17896 ft | 309 kts | 111° |
| 2026-05-08 01:55 | 42.55034 | -71.59238 | 17524 ft | 311 kts | 111° |
| 2026-05-08 01:55 | 42.54471 | -71.56456 | 17126 ft | 303 kts | 116° |
| 2026-05-08 01:55 | 42.53873 | -71.53719 | 16741 ft | 303 kts | 114° |
| 2026-05-08 01:55 | 42.53313 | -71.50963 | 16346 ft | 302 kts | 113° |
| 2026-05-08 01:56 | 42.52759 | -71.48220 | 15979 ft | 301 kts | 113° |
| 2026-05-08 01:56 | 42.52189 | -71.45492 | 15619 ft | 300 kts | 112° |
| 2026-05-08 01:56 | 42.51620 | -71.42780 | 15270 ft | 299 kts | 112° |
| 2026-05-08 01:56 | 42.51056 | -71.40069 | 14939 ft | 298 kts | 111° |
| 2026-05-08 01:57 | 42.50495 | -71.37371 | 14606 ft | 297 kts | 111° |
| 2026-05-08 01:57 | 42.49937 | -71.34676 | 14222 ft | 298 kts | 110° |
| 2026-05-08 01:57 | 42.49403 | -71.31960 | 13737 ft | 298 kts | 108° |
| 2026-05-08 01:57 | 42.48898 | -71.29380 | 13249 ft | 298 kts | 108° |
| 2026-05-08 01:58 | 42.48357 | -71.26676 | 12728 ft | 297 kts | 108° |
| 2026-05-08 01:58 | 42.47814 | -71.23982 | 12243 ft | 296 kts | 108° |
| 2026-05-08 01:58 | 42.47278 | -71.21313 | 11756 ft | 293 kts | 108° |
| 2026-05-08 01:58 | 42.46746 | -71.18660 | 11274 ft | 289 kts | 107° |
| 2026-05-08 01:59 | 42.46232 | -71.16088 | 10808 ft | 284 kts | 107° |
| 2026-05-08 01:59 | 42.45909 | -71.13490 | 10301 ft | 278 kts | 94° |
| 2026-05-08 01:59 | 42.45744 | -71.10906 | 9852 ft | 274 kts | 97° |
| 2026-05-08 01:59 | 42.45489 | -71.08367 | 9354 ft | 270 kts | 98° |
| 2026-05-08 02:00 | 42.45237 | -71.05866 | 8867 ft | 266 kts | 97° |
| 2026-05-08 02:00 | 42.45016 | -71.03395 | 8388 ft | 263 kts | 96° |
| 2026-05-08 02:00 | 42.44756 | -71.00962 | 7915 ft | 259 kts | 100° |
| 2026-05-08 02:00 | 42.44417 | -70.98580 | 7446 ft | 256 kts | 100° |
| 2026-05-08 02:01 | 42.44116 | -70.96220 | 6999 ft | 252 kts | 95° |
| 2026-05-08 02:01 | 42.44406 | -70.93927 | 6482 ft | 246 kts | 67° |
| 2026-05-08 02:01 | 42.44874 | -70.91715 | 6048 ft | 244 kts | 77° |
| 2026-05-08 02:01 | 42.45139 | -70.89453 | 5583 ft | 242 kts | 79° |
| 2026-05-08 02:02 | 42.45447 | -70.87222 | 5126 ft | 240 kts | 76° |
| 2026-05-08 02:02 | 42.45802 | -70.85037 | 4903 ft | 231 kts | 75° |
| 2026-05-08 02:02 | 42.46123 | -70.82965 | 4982 ft | 220 kts | 76° |
| 2026-05-08 02:02 | 42.46428 | -70.80968 | 4978 ft | 213 kts | 76° |
| 2026-05-08 02:03 | 42.46724 | -70.79022 | 4979 ft | 208 kts | 76° |
| 2026-05-08 02:03 | 42.47017 | -70.77121 | 4974 ft | 205 kts | 75° |
| 2026-05-08 02:03 | 42.47315 | -70.75243 | 4980 ft | 204 kts | 75° |
| 2026-05-08 02:03 | 42.47614 | -70.73360 | 4981 ft | 204 kts | 75° |
| 2026-05-08 02:04 | 42.47916 | -70.71476 | 4978 ft | 205 kts | 75° |
| 2026-05-08 02:04 | 42.48221 | -70.69591 | 4980 ft | 205 kts | 75° |
| 2026-05-08 02:04 | 42.48527 | -70.67698 | 4985 ft | 206 kts | 75° |
| 2026-05-08 02:04 | 42.48834 | -70.65801 | 4986 ft | 206 kts | 75° |
| 2026-05-08 02:05 | 42.49142 | -70.63904 | 4983 ft | 206 kts | 75° |
| 2026-05-08 02:05 | 42.49446 | -70.62027 | 4981 ft | 207 kts | 75° |
| 2026-05-08 02:05 | 42.49759 | -70.60099 | 4982 ft | 207 kts | 75° |
| 2026-05-08 02:05 | 42.50068 | -70.58195 | 4979 ft | 207 kts | 75° |
| 2026-05-08 02:06 | 42.50372 | -70.56317 | 4977 ft | 207 kts | 75° |
| 2026-05-08 02:06 | 42.50683 | -70.54408 | 4976 ft | 207 kts | 75° |
| 2026-05-08 02:06 | 42.50993 | -70.52497 | 4977 ft | 208 kts | 75° |
| 2026-05-08 02:06 | 42.51304 | -70.50587 | 4976 ft | 208 kts | 75° |
| 2026-05-08 02:07 | 42.51615 | -70.48671 | 4972 ft | 208 kts | 75° |
| 2026-05-08 02:07 | 42.51930 | -70.46759 | 4969 ft | 209 kts | 75° |
| 2026-05-08 02:07 | 42.52247 | -70.44839 | 4969 ft | 209 kts | 75° |
| 2026-05-08 02:07 | 42.52560 | -70.42928 | 4842 ft | 207 kts | 75° |
| 2026-05-08 02:08 | 42.52424 | -70.40925 | 4247 ft | 225 kts | 113° |
| 2026-05-08 02:08 | 42.51376 | -70.39354 | 3719 ft | 230 kts | 152° |
| 2026-05-08 02:08 | 42.49842 | -70.38916 | 3239 ft | 227 kts | 189° |
| 2026-05-08 02:08 | 42.48449 | -70.39767 | 2753 ft | 219 kts | 226° |
| 2026-05-08 02:09 | 42.47709 | -70.41497 | 2330 ft | 210 kts | 254° |
| 2026-05-08 02:09 | 42.47080 | -70.43176 | 2418 ft | 195 kts | 243° |
| 2026-05-08 02:09 | 42.46414 | -70.44693 | 2787 ft | 181 kts | 244° |
| 2026-05-08 02:09 | 42.45793 | -70.46146 | 3039 ft | 178 kts | 244° |
| 2026-05-08 02:10 | 42.45148 | -70.47660 | 2981 ft | 189 kts | 244° |
| 2026-05-08 02:10 | 42.44483 | -70.49233 | 2980 ft | 196 kts | 244° |
| 2026-05-08 02:10 | 42.43799 | -70.50858 | 2987 ft | 201 kts | 244° |
| 2026-05-08 02:10 | 42.43101 | -70.52522 | 2984 ft | 205 kts | 244° |
| 2026-05-08 02:11 | 42.42401 | -70.54196 | 2978 ft | 208 kts | 244° |
| 2026-05-08 02:11 | 42.41892 | -70.56017 | 2956 ft | 203 kts | 265° |
| 2026-05-08 02:11 | 42.41613 | -70.57892 | 2980 ft | 205 kts | 257° |
| 2026-05-08 02:11 | 42.41210 | -70.59728 | 2982 ft | 207 kts | 256° |
| 2026-05-08 02:12 | 42.40772 | -70.61624 | 2985 ft | 209 kts | 256° |
| 2026-05-08 02:12 | 42.40381 | -70.63485 | 2978 ft | 208 kts | 262° |
| 2026-05-08 02:12 | 42.40269 | -70.65428 | 2975 ft | 207 kts | 269° |
| 2026-05-08 02:12 | 42.40142 | -70.67373 | 2980 ft | 208 kts | 266° |
| 2026-05-08 02:13 | 42.39997 | -70.69328 | 2980 ft | 209 kts | 267° |
| 2026-05-08 02:13 | 42.39850 | -70.71291 | 2984 ft | 210 kts | 266° |
| 2026-05-08 02:13 | 42.39840 | -70.73250 | 2976 ft | 206 kts | 277° |
| 2026-05-08 02:13 | 42.39973 | -70.75137 | 2964 ft | 198 kts | 275° |
| 2026-05-08 02:14 | 42.39889 | -70.76963 | 2968 ft | 193 kts | 263° |
| 2026-05-08 02:14 | 42.39581 | -70.78706 | 2971 ft | 188 kts | 259° |
| 2026-05-08 02:14 | 42.39259 | -70.80408 | 2776 ft | 186 kts | 259° |
| 2026-05-08 02:14 | 42.38967 | -70.82108 | 2539 ft | 185 kts | 261° |
| 2026-05-08 02:15 | 42.38663 | -70.83795 | 2291 ft | 184 kts | 259° |
| 2026-05-08 02:15 | 42.38368 | -70.85477 | 2039 ft | 181 kts | 261° |
| 2026-05-08 02:15 | 42.38089 | -70.87056 | 1818 ft | 164 kts | 260° |
| 2026-05-08 02:15 | 42.37833 | -70.88492 | 1580 ft | 151 kts | 262° |
| 2026-05-08 02:16 | 42.37601 | -70.89843 | 1380 ft | 147 kts | 261° |
| 2026-05-08 02:16 | 42.37357 | -70.91191 | 1176 ft | 146 kts | 261° |
| 2026-05-08 02:16 | 42.37135 | -70.92514 | 979 ft | 148 kts | 259° |
| 2026-05-08 02:16 | 42.36881 | -70.93853 | 914 ft | 143 kts | 258° |
| 2026-05-08 02:17 | 42.36638 | -70.95130 | 796 ft | 140 kts | 259° |
| 2026-05-08 02:17 | 42.36422 | -70.96400 | 566 ft | 136 kts | 259° |
| 2026-05-08 02:17 | 42.36210 | -70.97632 | 278 ft | 130 kts | 258° |
| 2026-05-08 02:17 | 42.36007 | -70.98776 | 69 ft | 120 kts | 262° |
| 2026-05-08 02:18 | 42.35840 | -70.99777 | 26 ft | 98 kts | 256° |
| 2026-05-08 02:18 | 42.35745 | -71.00380 | 25 ft | 35 kts | 278° |
| 2026-05-08 02:18 | 42.35782 | -71.00646 | 25 ft | 29 kts | 280° |
| 2026-05-08 02:18 | 42.35812 | -71.00914 | 25 ft | 29 kts | 276° |
| 2026-05-08 02:19 | 42.35837 | -71.01189 | 26 ft | 30 kts | 277° |
| 2026-05-08 02:19 | 42.35871 | -71.01463 | 25 ft | 25 kts | 280° |
| 2026-05-08 02:19 | 42.35890 | -71.01612 | 25 ft | 23 kts | 279° |